createdAt,value
2023-12-26T00:03:36.476Z,97016.09
2023-12-26T00:07:41.492Z,97016.75
2023-12-26T00:11:44.451Z,97007.00
2023-12-26T00:15:47.281Z,96999.78
2023-12-26T00:19:51.117Z,96996.03
2023-12-26T00:23:55.249Z,96992.91
2023-12-26T00:27:57.962Z,96989.59
2023-12-26T00:32:00.670Z,96986.91
2023-12-26T00:36:03.548Z,96984.47
2023-12-26T00:40:09.221Z,96979.69
2023-12-26T00:44:11.926Z,96987.16
2023-12-26T00:48:15.056Z,96984.47
2023-12-26T00:52:17.844Z,96996.25
2023-12-26T00:56:22.255Z,96978.03
2023-12-26T01:00:25.002Z,96978.22
2023-12-26T01:04:27.769Z,96982.16
2023-12-26T01:08:30.467Z,96969.53
2023-12-26T01:12:34.504Z,96973.69
2023-12-26T01:16:38.313Z,96981.94
2023-12-26T01:20:41.008Z,96997.25
2023-12-26T01:24:44.299Z,96991.25
2023-12-26T01:28:48.322Z,96989.19
2023-12-26T01:32:51.076Z,96991.66
2023-12-26T01:36:53.779Z,96995.16
2023-12-26T01:40:56.473Z,96994.09
2023-12-26T01:45:01.788Z,97004.66
2023-12-26T01:49:05.213Z,96995.13
2023-12-26T01:53:08.121Z,96998.22
2023-12-26T01:57:11.355Z,97000.25
2023-12-26T02:01:15.910Z,96988.44
2023-12-26T02:05:18.726Z,96991.75
2023-12-26T02:09:21.495Z,96982.63
2023-12-26T02:13:24.359Z,96981.56
2023-12-26T02:17:30.254Z,96974.50
2023-12-26T02:21:33.880Z,96981.94
2023-12-26T02:25:37.959Z,96989.34
2023-12-26T02:29:41.941Z,96979.00
2023-12-26T02:33:46.399Z,96983.91
2023-12-26T02:37:50.865Z,96986.78
2023-12-26T02:41:54.961Z,96979.78
2023-12-26T02:45:57.797Z,96990.91
2023-12-26T02:50:00.617Z,96992.53
2023-12-26T02:54:03.347Z,96986.09
2023-12-26T02:58:07.486Z,96982.75
2023-12-26T03:02:10.182Z,96995.53
2023-12-26T03:06:12.952Z,96989.09
2023-12-26T03:10:15.709Z,96977.50
2023-12-26T03:14:19.725Z,96982.28
2023-12-26T03:18:22.657Z,96976.47
2023-12-26T03:22:25.436Z,96976.66
2023-12-26T03:26:28.101Z,96977.84
2023-12-26T03:30:33.405Z,96972.50
2023-12-26T03:34:36.506Z,96969.09
2023-12-26T03:38:39.371Z,96969.22
2023-12-26T03:42:43.613Z,96990.88
2023-12-26T03:46:47.628Z,96986.03
2023-12-26T03:50:50.320Z,96982.72
2023-12-26T03:54:54.298Z,96988.66
2023-12-26T03:58:56.995Z,96988.41
2023-12-26T04:03:01.485Z,96992.06
2023-12-26T04:07:04.657Z,96992.31
2023-12-26T04:11:07.340Z,96999.31
2023-12-26T04:15:10.946Z,96999.19
2023-12-26T04:19:15.093Z,97010.75
2023-12-26T04:23:17.800Z,97012.84
2023-12-26T04:27:23.452Z,97023.84
2023-12-26T04:31:27.237Z,97026.94
2023-12-26T04:35:34.353Z,97020.56
2023-12-26T04:39:37.022Z,97031.09
2023-12-26T04:43:47.389Z,97029.19
2023-12-26T04:47:51.443Z,97031.88
2023-12-26T04:51:55.519Z,97041.13
2023-12-26T04:55:58.224Z,97052.88
2023-12-26T05:00:03.433Z,97056.78
2023-12-26T05:04:06.345Z,97059.84
2023-12-26T05:08:10.378Z,97061.72
2023-12-26T05:12:13.088Z,97060.50
2023-12-26T05:16:15.843Z,97068.72
2023-12-26T05:20:29.701Z,97072.88
2023-12-26T05:24:48.169Z,97081.13
2023-12-26T05:28:54.224Z,97085.63
2023-12-26T05:32:57.289Z,97087.66
2023-12-26T05:37:00.324Z,97095.53
2023-12-26T05:41:06.537Z,97099.25
2023-12-26T05:45:09.708Z,97100.91
2023-12-26T05:49:12.502Z,97104.22
2023-12-26T05:53:15.227Z,97095.34
2023-12-26T05:57:19.296Z,97106.34
2023-12-26T06:01:21.999Z,97110.31
2023-12-26T06:05:24.653Z,97103.91
2023-12-26T06:09:27.895Z,97103.75
2023-12-26T06:13:31.959Z,97102.94
2023-12-26T06:17:35.987Z,97094.44
2023-12-26T06:21:38.844Z,97107.66
2023-12-26T06:25:41.607Z,97112.28
2023-12-26T06:29:45.623Z,97104.84
2023-12-26T06:33:48.557Z,97113.53
2023-12-26T06:37:51.404Z,97125.94
2023-12-26T06:41:54.065Z,97150.16
2023-12-26T06:45:58.436Z,97142.94
2023-12-26T06:50:01.185Z,97145.03
2023-12-26T06:54:03.874Z,97145.22
2023-12-26T06:58:06.571Z,97155.78
2023-12-26T07:02:11.616Z,97165.94
2023-12-26T07:06:14.409Z,97171.13
2023-12-26T07:10:17.100Z,97183.53
2023-12-26T07:14:19.935Z,97180.16
2023-12-26T07:18:24.209Z,97184.91
2023-12-26T07:22:27.034Z,97195.84
2023-12-26T07:26:29.731Z,97194.56
2023-12-26T07:30:32.556Z,97200.13
2023-12-26T07:34:36.842Z,97212.72
2023-12-26T07:38:39.622Z,97213.91
2023-12-26T07:42:42.343Z,97221.84
2023-12-26T07:46:45.046Z,97238.22
2023-12-26T07:50:49.105Z,97242.81
2023-12-26T07:54:52.182Z,97256.69
2023-12-26T07:58:55.939Z,97263.53
2023-12-26T08:02:58.942Z,97267.50
2023-12-26T08:07:03.295Z,97282.41
2023-12-26T08:11:06.342Z,97272.34
2023-12-26T08:15:10.589Z,97291.59
2023-12-26T08:19:13.750Z,97293.03
2023-12-26T08:23:17.923Z,97293.03
2023-12-26T08:27:21.605Z,97302.59
2023-12-26T08:31:24.695Z,97315.72
2023-12-26T08:35:27.413Z,97310.59
2023-12-26T08:39:31.850Z,97324.09
2023-12-26T08:43:34.656Z,97316.03
2023-12-26T08:47:37.586Z,97322.88
2023-12-26T08:51:41.028Z,97326.28
2023-12-26T08:55:46.834Z,97341.41
2023-12-26T08:59:49.589Z,97344.78
2023-12-26T09:03:53.545Z,97342.88
2023-12-26T09:07:57.455Z,97356.38
2023-12-26T09:12:01.609Z,97346.28
2023-12-26T09:16:04.808Z,97350.06
2023-12-26T09:20:10.875Z,97349.97
2023-12-26T09:24:13.705Z,97371.66
2023-12-26T09:28:18.531Z,97360.13
2023-12-26T09:32:21.242Z,97362.00
2023-12-26T09:36:24.559Z,97354.84
2023-12-26T09:40:27.504Z,97357.25
2023-12-26T09:44:31.900Z,97356.13
2023-12-26T09:48:35.417Z,97349.69
2023-12-26T09:52:39.566Z,97377.34
2023-12-26T09:56:42.675Z,97374.28
2023-12-26T10:00:48.535Z,97385.09
2023-12-26T10:04:51.849Z,97396.69
2023-12-26T10:08:54.628Z,97392.16
2023-12-26T10:12:57.537Z,97391.56
2023-12-26T10:17:01.755Z,97399.44
2023-12-26T10:21:04.783Z,97420.31
2023-12-26T10:25:08.765Z,97398.09
2023-12-26T10:29:13.517Z,97399.56
2023-12-26T10:33:26.030Z,97395.03
2023-12-26T10:37:30.182Z,97393.16
2023-12-26T10:41:33.705Z,97407.63
2023-12-26T10:45:36.453Z,97386.78
2023-12-26T10:49:43.313Z,97388.50
2023-12-26T10:53:51.252Z,97404.69
2023-12-26T10:57:56.045Z,97387.91
2023-12-26T11:02:03.779Z,97387.97
2023-12-26T11:06:14.209Z,97395.63
2023-12-26T11:10:17.007Z,97419.47
2023-12-26T11:14:18.764Z,97413.00
2023-12-26T11:18:23.315Z,97420.88
2023-12-26T11:22:26.557Z,97414.88
2023-12-26T11:26:31.761Z,97415.25
2023-12-26T11:30:33.606Z,97412.56
2023-12-26T11:34:36.589Z,97412.81
2023-12-26T11:38:40.062Z,97397.97
2023-12-26T11:42:46.311Z,97415.19
2023-12-26T11:46:48.974Z,97405.44
2023-12-26T11:50:51.791Z,97406.88
2023-12-26T11:54:54.927Z,97412.72
2023-12-26T11:58:57.628Z,97405.28
2023-12-26T12:02:59.606Z,97407.16
2023-12-26T12:07:13.231Z,97414.78
2023-12-26T12:11:16.427Z,97419.97
2023-12-26T12:15:19.325Z,97425.34
2023-12-26T12:19:21.423Z,97426.16
2023-12-26T12:23:24.355Z,97415.84
2023-12-26T12:27:27.506Z,97410.94
2023-12-26T12:31:30.396Z,97412.00
2023-12-26T12:35:32.226Z,97411.78
2023-12-26T12:39:35.021Z,97415.56
2023-12-26T12:43:41.592Z,97418.47
2023-12-26T12:47:44.526Z,97421.34
2023-12-26T12:51:46.247Z,97421.91
2023-12-26T12:55:48.937Z,97424.22
2023-12-26T12:59:52.057Z,97417.69
2023-12-26T13:03:54.819Z,97416.06
2023-12-26T13:07:56.626Z,97429.94
2023-12-26T13:11:59.418Z,97425.63
2023-12-26T13:16:02.851Z,97415.47
2023-12-26T13:20:05.655Z,97415.28
2023-12-26T13:24:07.379Z,97422.72
2023-12-26T13:28:10.869Z,97403.03
2023-12-26T13:32:13.965Z,97402.00
2023-12-26T13:36:16.797Z,97407.84
2023-12-26T13:40:18.574Z,97419.88
2023-12-26T13:44:21.285Z,97424.84
2023-12-26T13:48:24.516Z,97412.00
2023-12-26T13:52:28.832Z,97429.88
2023-12-26T13:56:31.516Z,97440.22
2023-12-26T14:00:35.158Z,97451.00
2023-12-26T14:04:40.644Z,97452.41
2023-12-26T14:08:43.701Z,97444.09
2023-12-26T14:12:46.413Z,97445.56
2023-12-26T14:16:49.169Z,97454.44
2023-12-26T14:20:53.279Z,97456.72
2023-12-26T14:24:56.016Z,97477.41
2023-12-26T14:28:59.976Z,97472.88
2023-12-26T14:33:06.269Z,97466.88
2023-12-26T14:37:10.865Z,97480.75
2023-12-26T14:41:13.627Z,97467.28
2023-12-26T14:45:16.443Z,97465.84
2023-12-26T14:49:19.421Z,97464.66
2023-12-26T14:53:23.507Z,97467.53
2023-12-26T14:57:26.326Z,97489.25
2023-12-26T15:01:29.225Z,97493.63
2023-12-26T15:05:35.678Z,97495.47
2023-12-26T15:09:40.721Z,97498.16
2023-12-26T15:13:48.383Z,97491.75
2023-12-26T15:17:55.240Z,97506.25
2023-12-26T15:21:58.020Z,97509.16
2023-12-26T15:26:02.119Z,97526.75
2023-12-26T15:30:05.611Z,97530.47
2023-12-26T15:34:09.312Z,97543.75
2023-12-26T15:38:12.100Z,97532.34
2023-12-26T15:42:16.662Z,97541.22
2023-12-26T15:46:20.003Z,97555.91
2023-12-26T15:50:22.735Z,97570.97
2023-12-26T15:54:25.542Z,97568.38
2023-12-26T15:58:29.715Z,97555.84
2023-12-26T16:02:34.504Z,97554.78
2023-12-26T16:06:38.727Z,97572.19
2023-12-26T16:10:42.682Z,97575.34
2023-12-26T16:14:46.789Z,97569.53
2023-12-26T16:18:51.078Z,97591.81
2023-12-26T16:22:54.359Z,97599.00
2023-12-26T16:26:57.160Z,97603.56
2023-12-26T16:31:02.786Z,97594.38
2023-12-26T16:35:06.603Z,97613.22
2023-12-26T16:39:11.893Z,97609.91
2023-12-26T16:43:14.682Z,97631.78
2023-12-26T16:47:18.954Z,97631.16
2023-12-26T16:51:21.658Z,97630.50
2023-12-26T16:55:24.515Z,97623.94
2023-12-26T16:59:27.254Z,97634.41
2023-12-26T17:03:31.553Z,97647.84
2023-12-26T17:07:34.443Z,97654.97
2023-12-26T17:11:37.213Z,97643.13
2023-12-26T17:15:40.936Z,97649.00
2023-12-26T17:19:47.712Z,97672.72
2023-12-26T17:23:52.102Z,97667.81
2023-12-26T17:27:54.998Z,97670.34
2023-12-26T17:31:59.759Z,97661.22
2023-12-26T17:36:03.922Z,97659.56
2023-12-26T17:40:07.678Z,97662.38
2023-12-26T17:44:11.351Z,97671.00
2023-12-26T17:48:14.275Z,97667.09
2023-12-26T17:52:18.478Z,97672.41
2023-12-26T17:56:21.384Z,97688.28
2023-12-26T18:00:24.119Z,97689.69
2023-12-26T18:04:26.901Z,97699.78
2023-12-26T18:08:30.988Z,97698.91
2023-12-26T18:12:33.715Z,97696.75
2023-12-26T18:16:40.533Z,97703.16
2023-12-26T18:20:43.329Z,97714.56
2023-12-26T18:24:47.388Z,97718.84
2023-12-26T18:28:50.088Z,97725.22
2023-12-26T18:32:53.070Z,97728.66
2023-12-26T18:36:55.933Z,97723.28
2023-12-26T18:41:00.273Z,97726.16
2023-12-26T18:45:03.036Z,97727.09
2023-12-26T18:49:07.624Z,97732.00
2023-12-26T18:53:10.383Z,97738.03
2023-12-26T18:57:14.393Z,97744.53
2023-12-26T19:01:17.462Z,97749.44
2023-12-26T19:05:21.878Z,97743.59
2023-12-26T19:09:24.608Z,97750.19
2023-12-26T19:13:29.169Z,97770.50
2023-12-26T19:17:32.009Z,97770.13
2023-12-26T19:21:34.813Z,97764.53
2023-12-26T19:25:42.499Z,97779.09
2023-12-26T19:29:46.532Z,97768.34
2023-12-26T19:33:49.373Z,97775.41
2023-12-26T19:37:52.340Z,97759.94
2023-12-26T19:41:55.058Z,97760.09
2023-12-26T19:45:59.048Z,97771.16
2023-12-26T19:50:01.687Z,97760.41
2023-12-26T19:54:04.390Z,97765.03
2023-12-26T19:58:07.050Z,97766.03
2023-12-26T20:02:11.094Z,97764.28
2023-12-26T20:06:15.516Z,97785.03
2023-12-26T20:10:18.306Z,97766.59
2023-12-26T20:14:21.190Z,97773.00
2023-12-26T20:18:26.433Z,97782.56
2023-12-26T20:22:29.367Z,97792.94
2023-12-26T20:26:32.137Z,97798.97
2023-12-26T20:30:34.917Z,97780.31
2023-12-26T20:34:39.180Z,97799.16
2023-12-26T20:38:41.944Z,97787.38
2023-12-26T20:42:45.152Z,97782.66
2023-12-26T20:46:49.140Z,97783.00
2023-12-26T20:50:54.280Z,97800.91
2023-12-26T20:54:57.002Z,97798.31
2023-12-26T20:59:00.428Z,97812.13
2023-12-26T21:03:03.150Z,97820.09
2023-12-26T21:07:07.406Z,97832.41
2023-12-26T21:11:10.172Z,97844.53
2023-12-26T21:15:14.291Z,97851.00
2023-12-26T21:19:17.201Z,97864.78
2023-12-26T21:23:21.267Z,97862.66
2023-12-26T21:27:24.026Z,97874.22
2023-12-26T21:31:26.989Z,97863.38
2023-12-26T21:35:29.780Z,97880.69
2023-12-26T21:39:34.251Z,97886.06
2023-12-26T21:43:37.129Z,97873.63
2023-12-26T21:47:41.101Z,97880.69
2023-12-26T21:51:43.856Z,97883.38
2023-12-26T21:55:48.119Z,97880.38
2023-12-26T21:59:51.518Z,97876.38
2023-12-26T22:03:54.227Z,97884.28
2023-12-26T22:07:57.139Z,97893.50
2023-12-26T22:12:01.728Z,97901.56
2023-12-26T22:16:04.831Z,97906.28
2023-12-26T22:20:08.888Z,97912.03
2023-12-26T22:24:11.708Z,97914.22
2023-12-26T22:28:15.785Z,97923.28
2023-12-26T22:32:20.029Z,97927.16
2023-12-26T22:36:23.125Z,97920.28
2023-12-26T22:40:25.840Z,97916.09
2023-12-26T22:44:29.889Z,97920.78
2023-12-26T22:48:33.345Z,97924.44
2023-12-26T22:52:36.156Z,97925.47
2023-12-26T22:56:41.414Z,97914.72
2023-12-26T23:00:45.483Z,97925.94
2023-12-26T23:04:48.385Z,97931.13
2023-12-26T23:08:51.173Z,97932.84
2023-12-26T23:12:53.905Z,97943.78
2023-12-26T23:16:57.967Z,97947.97
2023-12-26T23:21:00.720Z,97954.16
2023-12-26T23:25:03.436Z,97950.31
2023-12-26T23:29:06.820Z,97944.28
2023-12-26T23:33:11.080Z,97944.00
2023-12-26T23:37:13.893Z,97948.06
2023-12-26T23:41:16.936Z,97948.38
2023-12-26T23:45:19.625Z,97953.94
2023-12-26T23:49:23.915Z,97959.13
2023-12-26T23:53:26.697Z,97972.72
2023-12-26T23:57:29.454Z,97962.50
